首页
METAR-TAF:

METAR-TAF

机场 :

蒂米什瓦拉, 罗马尼亚

纬度: 45-46N, 经度: 021-15E, 海拔: 86米

当前天气观测

该预报发布于22分钟前的15:00 UTC
风速4节,风向
温度 28°C
湿度 55%
气压 1015 hPa
能见度10公里或以上
少量云层高于4000英尺
少量云层高于5000英尺, 积雨云.

METAR: LRTR 171500Z 35004KT 9999 FEW040 FEW050CB 28/18 Q1015 NOSIG

时间: 18:22 (15:22 UTC)

预报

该预报发布于4小时和22分钟前的11:00 UTC
预报有效从17日的 12点(UTC)到 18日的 12点(UTC)
风速4节,风向多变
能见度10公里或以上
1500米以下无云,无积雨云
短暂存在
从 17日的 12点(UTC)到 17日的 18点(UTC)
风速20节,风向多变,有时为30节阵风
能見度: 3000
多云层高于1000英尺
多云层高于3000英尺, 积雨云.
雷暴, 雨
几率 40%
从 17日的 13点(UTC)到 17日的 16点(UTC)
能見度: 1500
雷暴, 大雨
短暂存在
从 18日的 00点(UTC)到 18日的 05点(UTC)
能見度: 3000
轻雾

TAF: LRTR 171100Z 1712/1812 VRB04KT CAVOK TEMPO 1712/1718 VRB20G30KT 3000 TSRA BKN010 BKN030CB PROB40 1713/1716 1500 +TSRA TEMPO 1800/1805 3000 BR

超过4000个机场的气象观测和天气预报(METAR&TAF报告)。

可查询的气象台以黄色和红色小点在地图上表示。

将鼠标移到小点上方,可查看气象台名称。

然后点击查看天气观测和预报。

如需切换地图:点击带黑十字的绿色按钮放大地图;点击带横线的绿色按钮缩小地图;或者点击绿色箭头查看邻近地区的地图。


METAR-TAF: